createdAt,value
2023-04-02T00:00:11.289Z,59.88
2023-04-02T00:03:01.994Z,60.86
2023-04-02T00:05:51.039Z,65.06
2023-04-02T00:08:23.837Z,68.59
2023-04-02T00:10:54.345Z,67.42
2023-04-02T00:13:32.520Z,65.99
2023-04-02T00:16:00.575Z,64.65
2023-04-02T00:18:27.982Z,63.47
2023-04-02T00:21:09.543Z,62.50
2023-04-02T00:23:39.700Z,61.65
2023-04-02T00:26:31.893Z,60.82
2023-04-02T00:29:01.489Z,57.45
2023-04-02T00:31:29.670Z,56.53
2023-04-02T00:33:58.549Z,57.84
2023-04-02T00:36:30.528Z,59.16
2023-04-02T00:39:00.356Z,59.97
2023-04-02T00:41:31.184Z,61.29
2023-04-02T00:44:01.416Z,65.42
2023-04-02T00:46:47.391Z,68.22
2023-04-02T00:49:37.146Z,67.50
2023-04-02T00:52:17.316Z,65.83
2023-04-02T00:55:07.284Z,65.00
2023-04-02T00:57:34.310Z,63.79
2023-04-02T01:00:16.209Z,63.13
2023-04-02T01:02:43.287Z,61.92
2023-04-02T01:05:16.955Z,60.65
2023-04-02T01:07:56.224Z,58.62
2023-04-02T01:10:29.026Z,57.32
2023-04-02T01:13:14.581Z,58.44
2023-04-02T01:16:27.636Z,59.61
2023-04-02T01:19:46.987Z,60.70
2023-04-02T01:22:19.518Z,66.14
2023-04-02T01:24:47.813Z,67.83
2023-04-02T01:27:29.304Z,67.07
2023-04-02T01:29:59.385Z,66.83
2023-04-02T01:32:29.021Z,65.72
2023-04-02T01:35:08.738Z,64.17
2023-04-02T01:37:51.856Z,62.89
2023-04-02T01:40:39.935Z,62.27
2023-04-02T01:43:25.935Z,61.28
2023-04-02T01:45:58.225Z,60.19
2023-04-02T01:48:35.111Z,57.45
2023-04-02T01:51:09.314Z,56.72
2023-04-02T01:53:41.097Z,58.38
2023-04-02T01:56:11.296Z,60.20
2023-04-02T01:58:40.084Z,63.69
2023-04-02T02:01:19.341Z,66.52
2023-04-02T02:03:46.810Z,66.20
2023-04-02T02:06:16.684Z,64.74
2023-04-02T02:08:51.540Z,63.84
2023-04-02T02:11:24.620Z,63.16
2023-04-02T02:13:56.402Z,62.92
2023-04-02T02:16:24.743Z,62.73
2023-04-02T02:18:55.806Z,61.69
2023-04-02T02:21:27.805Z,61.14
2023-04-02T02:23:56.324Z,61.14
2023-04-02T02:26:24.548Z,60.25
2023-04-02T02:28:54.523Z,59.94
2023-04-02T02:31:31.375Z,60.02
2023-04-02T02:34:06.586Z,59.84
2023-04-02T02:36:53.068Z,57.37
2023-04-02T02:39:26.327Z,56.92
2023-04-02T02:42:01.057Z,58.70
2023-04-02T02:44:32.452Z,60.25
2023-04-02T02:47:03.811Z,64.00
2023-04-02T02:49:40.202Z,67.16
2023-04-02T02:52:16.322Z,66.33
2023-04-02T02:54:54.965Z,64.51
2023-04-02T02:57:34.337Z,63.24
2023-04-02T03:00:03.962Z,62.52
2023-04-02T03:02:31.027Z,61.85
2023-04-02T03:04:58.691Z,61.07
2023-04-02T03:07:27.731Z,60.63
2023-04-02T03:10:12.976Z,60.21
2023-04-02T03:13:01.173Z,60.12
2023-04-02T03:15:46.390Z,57.94
2023-04-02T03:18:35.821Z,57.20
2023-04-02T03:21:27.179Z,58.35
2023-04-02T03:24:01.657Z,59.66
2023-04-02T03:26:41.235Z,61.36
2023-04-02T03:29:42.044Z,65.36
2023-04-02T03:32:24.628Z,69.04
2023-04-02T03:34:59.971Z,68.13
2023-04-02T03:37:52.861Z,66.89
2023-04-02T03:40:25.096Z,65.02
2023-04-02T03:42:58.712Z,62.96
2023-04-02T03:45:32.741Z,62.04
2023-04-02T03:48:04.009Z,61.53
2023-04-02T03:50:46.093Z,60.86
2023-04-02T03:53:13.344Z,60.46
2023-04-02T03:55:42.459Z,58.22
2023-04-02T03:58:22.796Z,56.52
2023-04-02T04:01:00.783Z,57.30
2023-04-02T04:03:41.453Z,58.48
2023-04-02T04:06:30.332Z,59.63
2023-04-02T04:09:00.945Z,60.62
2023-04-02T04:11:38.113Z,65.45
2023-04-02T04:14:33.182Z,69.52
2023-04-02T04:17:14.373Z,67.87
2023-04-02T04:19:50.124Z,65.97
2023-04-02T04:22:30.727Z,64.36
2023-04-02T04:24:59.503Z,63.00
2023-04-02T04:28:05.947Z,62.23
2023-04-02T04:30:42.676Z,61.42
2023-04-02T04:33:22.663Z,60.45
2023-04-02T04:35:57.763Z,57.27
2023-04-02T04:38:35.241Z,56.08
2023-04-02T04:41:19.062Z,57.34
2023-04-02T04:43:51.942Z,59.22
2023-04-02T04:46:31.330Z,60.41
2023-04-02T04:49:36.626Z,64.88
2023-04-02T04:52:25.796Z,69.32
2023-04-02T04:54:52.750Z,67.54
2023-04-02T04:57:36.523Z,65.54
2023-04-02T05:00:23.192Z,64.25
2023-04-02T05:03:03.689Z,63.04
2023-04-02T05:05:34.654Z,62.19
2023-04-02T05:08:24.352Z,61.47
2023-04-02T05:11:06.107Z,60.60
2023-04-02T05:13:54.490Z,57.94
2023-04-02T05:16:31.647Z,56.94
2023-04-02T05:19:02.288Z,58.89
2023-04-02T05:21:47.374Z,62.95
2023-04-02T05:24:20.236Z,67.92
2023-04-02T05:26:50.783Z,67.93
2023-04-02T05:29:24.467Z,66.55
2023-04-02T05:32:03.794Z,65.83
2023-04-02T05:34:35.453Z,65.66
2023-04-02T05:37:04.071Z,65.24
2023-04-02T05:39:33.123Z,64.82
2023-04-02T05:42:05.916Z,64.87
2023-04-02T05:44:38.555Z,64.77
2023-04-02T05:47:13.946Z,64.71
2023-04-02T05:50:08.924Z,64.30
2023-04-02T05:53:34.644Z,63.96
2023-04-02T05:56:07.941Z,63.84
2023-04-02T05:58:45.298Z,63.67
2023-04-02T06:01:39.605Z,63.70
2023-04-02T06:04:24.116Z,63.77
2023-04-02T06:07:06.566Z,63.86
2023-04-02T06:09:49.582Z,63.90
2023-04-02T06:12:42.231Z,63.81
2023-04-02T06:15:16.873Z,63.75
2023-04-02T06:17:48.226Z,63.73
2023-04-02T06:20:18.528Z,63.40
2023-04-02T06:22:57.261Z,63.41
2023-04-02T06:25:45.381Z,63.29
2023-04-02T06:28:19.964Z,63.43
2023-04-02T06:30:48.577Z,63.34
2023-04-02T06:33:16.268Z,63.47
2023-04-02T06:35:46.961Z,63.25
2023-04-02T06:38:25.860Z,63.09
2023-04-02T06:41:00.308Z,63.19
2023-04-02T06:43:27.295Z,63.25
2023-04-02T06:45:58.399Z,62.89
2023-04-02T06:48:25.683Z,63.24
2023-04-02T06:50:59.387Z,63.61
2023-04-02T06:53:34.893Z,63.46
2023-04-02T06:56:10.788Z,62.61
2023-04-02T06:58:37.912Z,63.04
2023-04-02T07:01:04.995Z,61.88
2023-04-02T07:03:33.255Z,61.52
2023-04-02T07:06:03.217Z,61.90
2023-04-02T07:08:30.095Z,61.29
2023-04-02T07:10:57.154Z,61.26
2023-04-02T07:13:24.757Z,60.98
2023-04-02T07:15:54.307Z,60.65
2023-04-02T07:18:38.760Z,60.87
2023-04-02T07:21:05.885Z,60.96
2023-04-02T07:23:32.851Z,60.39
2023-04-02T07:25:59.793Z,60.03
2023-04-02T07:28:26.685Z,60.63
2023-04-02T07:30:55.487Z,60.77
2023-04-02T07:33:29.312Z,61.07
2023-04-02T07:35:58.162Z,60.91
2023-04-02T07:38:25.173Z,60.56
2023-04-02T07:40:52.037Z,60.23
2023-04-02T07:43:18.983Z,60.01
2023-04-02T07:45:45.901Z,59.83
2023-04-02T07:48:14.929Z,59.74
2023-04-02T07:50:42.295Z,58.18
2023-04-02T07:53:30.259Z,57.65
2023-04-02T07:55:59.245Z,58.72
2023-04-02T07:58:26.201Z,63.83
2023-04-02T08:00:53.014Z,67.91
2023-04-02T08:03:20.111Z,68.16
2023-04-02T08:05:54.912Z,65.55
2023-04-02T08:08:23.252Z,64.37
2023-04-02T08:10:51.096Z,62.49
2023-04-02T08:13:19.972Z,61.04
2023-04-02T08:15:47.398Z,58.86
2023-04-02T08:18:14.289Z,56.85
2023-04-02T08:20:41.246Z,60.16
2023-04-02T08:23:17.439Z,64.06
2023-04-02T08:25:45.728Z,67.33
2023-04-02T08:28:12.841Z,65.41
2023-04-02T08:30:40.101Z,62.90
2023-04-02T08:33:07.607Z,61.27
2023-04-02T08:35:34.988Z,60.17
2023-04-02T08:38:02.381Z,59.99
2023-04-02T08:40:41.654Z,60.12
2023-04-02T08:43:08.442Z,58.03
2023-04-02T08:46:06.879Z,56.73
2023-04-02T08:48:37.494Z,56.96
2023-04-02T08:51:06.447Z,58.82
2023-04-02T08:53:37.484Z,61.98
2023-04-02T08:56:10.283Z,69.08
2023-04-02T08:58:43.241Z,69.80
2023-04-02T09:01:31.891Z,68.11
2023-04-02T09:03:59.582Z,66.50
2023-04-02T09:06:29.405Z,66.56
2023-04-02T09:08:58.604Z,65.34
2023-04-02T09:11:55.220Z,63.80
2023-04-02T09:14:29.815Z,62.80
2023-04-02T09:17:02.292Z,63.48
2023-04-02T09:19:41.639Z,63.32
2023-04-02T09:22:26.684Z,62.12
2023-04-02T09:24:56.201Z,62.06
2023-04-02T09:27:28.673Z,62.72
2023-04-02T09:30:03.484Z,61.33
2023-04-02T09:32:52.984Z,60.70
2023-04-02T09:35:29.578Z,60.44
2023-04-02T09:38:22.949Z,60.49
2023-04-02T09:40:56.041Z,60.68
2023-04-02T09:43:29.315Z,60.59
2023-04-02T09:46:05.396Z,60.53
2023-04-02T09:48:44.290Z,60.01
2023-04-02T09:51:15.628Z,60.35
2023-04-02T09:54:02.827Z,60.70
2023-04-02T09:56:34.920Z,60.29
2023-04-02T09:59:13.969Z,60.52
2023-04-02T10:01:44.315Z,60.33
2023-04-02T10:04:44.444Z,60.49
2023-04-02T10:07:43.190Z,61.19
2023-04-02T10:10:39.897Z,61.11
2023-04-02T10:13:19.004Z,61.25
2023-04-02T10:16:02.944Z,61.61
2023-04-02T10:18:49.714Z,61.83
2023-04-02T10:21:29.412Z,62.52
2023-04-02T10:23:58.763Z,62.29
2023-04-02T10:26:25.585Z,61.72
2023-04-02T10:29:06.893Z,60.68
2023-04-02T10:31:58.829Z,60.07
2023-04-02T10:34:41.157Z,59.25
2023-04-02T10:37:24.609Z,56.44
2023-04-02T10:39:58.852Z,55.50
2023-04-02T10:42:39.477Z,56.87
2023-04-02T10:45:46.561Z,58.71
2023-04-02T10:48:52.294Z,64.70
2023-04-02T10:51:46.863Z,68.26
2023-04-02T10:54:33.408Z,65.84
2023-04-02T10:57:10.924Z,64.38
2023-04-02T10:59:43.495Z,63.08
2023-04-02T11:02:28.090Z,62.19
2023-04-02T11:05:00.519Z,61.46
2023-04-02T11:07:32.632Z,60.63
2023-04-02T11:10:01.164Z,60.05
2023-04-02T11:12:48.288Z,60.01
2023-04-02T11:15:17.485Z,57.01
2023-04-02T11:17:45.782Z,55.34
2023-04-02T11:20:44.457Z,56.08
2023-04-02T11:23:21.107Z,57.79
2023-04-02T11:25:49.073Z,63.35
2023-04-02T11:28:33.102Z,67.86
2023-04-02T11:31:00.580Z,65.99
2023-04-02T11:33:45.363Z,64.67
2023-04-02T11:36:52.446Z,62.49
2023-04-02T11:39:47.523Z,60.89
2023-04-02T11:42:27.696Z,60.70
2023-04-02T11:44:55.534Z,57.77
2023-04-02T11:47:28.363Z,55.82
2023-04-02T11:49:55.808Z,57.27
2023-04-02T11:52:46.569Z,59.63
2023-04-02T11:55:27.603Z,64.22
2023-04-02T11:58:36.501Z,68.87
2023-04-02T12:01:09.495Z,65.75
2023-04-02T12:03:48.329Z,64.42
2023-04-02T12:06:19.135Z,60.92
2023-04-02T12:09:22.878Z,60.73
2023-04-02T12:11:57.264Z,60.80
2023-04-02T12:14:42.906Z,58.01
2023-04-02T12:17:40.625Z,55.98
2023-04-02T12:20:09.440Z,59.03
2023-04-02T12:22:41.167Z,60.64
2023-04-02T12:25:27.626Z,61.80
2023-04-02T12:28:23.888Z,66.52
2023-04-02T12:31:02.294Z,68.99
2023-04-02T12:33:39.585Z,65.93
2023-04-02T12:36:14.964Z,63.81
2023-04-02T12:38:49.436Z,62.90
2023-04-02T12:41:27.584Z,61.65
2023-04-02T12:44:06.716Z,60.34
2023-04-02T12:46:36.165Z,56.77
2023-04-02T12:49:10.418Z,55.08
2023-04-02T12:51:38.162Z,56.24
2023-04-02T12:54:06.281Z,58.06
2023-04-02T12:56:33.836Z,59.26
2023-04-02T12:59:01.673Z,60.02
2023-04-02T13:01:32.100Z,62.37
2023-04-02T13:04:19.560Z,69.27
2023-04-02T13:06:52.430Z,70.33
2023-04-02T13:09:34.061Z,67.81
2023-04-02T13:12:01.834Z,64.47
2023-04-02T13:14:30.321Z,63.37
2023-04-02T13:16:57.854Z,61.59
2023-04-02T13:19:32.605Z,60.61
2023-04-02T13:22:02.413Z,60.20
2023-04-02T13:24:32.129Z,57.55
2023-04-02T13:27:03.688Z,55.40
2023-04-02T13:29:35.859Z,58.03
2023-04-02T13:32:11.602Z,61.74
2023-04-02T13:34:38.921Z,65.87
2023-04-02T13:37:06.026Z,66.11
2023-04-02T13:39:33.007Z,63.71
2023-04-02T13:42:03.059Z,61.82
2023-04-02T13:44:32.486Z,59.98
2023-04-02T13:47:00.813Z,57.40
2023-04-02T13:49:28.537Z,57.37
2023-04-02T13:52:03.320Z,58.04
2023-04-02T13:54:45.943Z,60.33
2023-04-02T13:57:13.215Z,59.98
2023-04-02T13:59:40.238Z,61.08
2023-04-02T14:02:12.940Z,67.26
2023-04-02T14:04:46.629Z,69.89
2023-04-02T14:07:33.844Z,67.10
2023-04-02T14:10:04.883Z,64.37
2023-04-02T14:12:54.495Z,62.29
2023-04-02T14:15:53.687Z,61.03
2023-04-02T14:18:48.495Z,56.41
2023-04-02T14:22:00.285Z,56.14
2023-04-02T14:25:03.076Z,56.99
2023-04-02T14:27:53.924Z,59.01
2023-04-02T14:30:36.786Z,63.96
2023-04-02T14:33:09.721Z,67.78
2023-04-02T14:35:42.718Z,66.35
2023-04-02T14:38:15.806Z,63.87
2023-04-02T14:40:52.256Z,62.23
2023-04-02T14:43:24.658Z,61.15
2023-04-02T14:46:05.775Z,57.89
2023-04-02T14:48:53.078Z,57.39
2023-04-02T14:51:32.332Z,59.52
2023-04-02T14:53:59.255Z,59.49
2023-04-02T14:56:26.991Z,62.73
2023-04-02T14:59:26.160Z,66.89
2023-04-02T15:02:02.793Z,66.06
2023-04-02T15:04:45.522Z,63.83
2023-04-02T15:07:26.455Z,60.76
2023-04-02T15:10:17.594Z,58.54
2023-04-02T15:12:45.531Z,56.25
2023-04-02T15:15:40.061Z,58.66
2023-04-02T15:18:16.649Z,64.42
2023-04-02T15:20:58.241Z,65.43
2023-04-02T15:23:42.864Z,63.92
2023-04-02T15:26:27.456Z,62.41
2023-04-02T15:29:28.340Z,61.20
2023-04-02T15:32:15.954Z,61.15
2023-04-02T15:35:11.838Z,59.96
2023-04-02T15:37:57.388Z,56.55
2023-04-02T15:40:30.890Z,54.61
2023-04-02T15:43:19.736Z,58.12
2023-04-02T15:46:10.303Z,58.57
2023-04-02T15:49:10.645Z,60.67
2023-04-02T15:52:05.946Z,64.96
2023-04-02T15:55:02.336Z,68.06
2023-04-02T15:57:29.235Z,65.32
2023-04-02T16:00:22.691Z,64.25
2023-04-02T16:03:06.449Z,61.48
2023-04-02T16:06:01.361Z,57.59
2023-04-02T16:08:47.299Z,55.67
2023-04-02T16:11:16.190Z,57.66
2023-04-02T16:13:44.335Z,59.00
2023-04-02T16:16:22.276Z,61.86
2023-04-02T16:19:01.813Z,67.55
2023-04-02T16:21:33.671Z,68.18
2023-04-02T16:24:02.003Z,64.83
2023-04-02T16:26:46.403Z,63.76
2023-04-02T16:29:53.426Z,61.85
2023-04-02T16:32:46.065Z,58.14
2023-04-02T16:35:54.426Z,56.20
2023-04-02T16:38:52.689Z,58.29
2023-04-02T16:41:44.175Z,63.65
2023-04-02T16:44:42.193Z,66.93
2023-04-02T16:47:23.375Z,64.80
2023-04-02T16:49:53.447Z,62.88
2023-04-02T16:52:43.565Z,61.79
2023-04-02T16:55:16.892Z,60.34
2023-04-02T16:58:30.502Z,60.37
2023-04-02T17:01:20.844Z,56.74
2023-04-02T17:04:19.934Z,55.25
2023-04-02T17:06:56.169Z,56.91
2023-04-02T17:09:39.879Z,57.95
2023-04-02T17:12:28.524Z,59.78
2023-04-02T17:15:29.615Z,65.01
2023-04-02T17:18:02.137Z,69.96
2023-04-02T17:20:29.461Z,67.10
2023-04-02T17:22:56.577Z,64.84
2023-04-02T17:25:32.263Z,62.80
2023-04-02T17:27:59.231Z,62.00
2023-04-02T17:30:49.049Z,61.30
2023-04-02T17:33:18.342Z,60.32
2023-04-02T17:36:00.915Z,57.99
2023-04-02T17:38:49.696Z,54.88
2023-04-02T17:41:38.837Z,57.89
2023-04-02T17:44:11.835Z,58.69
2023-04-02T17:47:06.924Z,61.13
2023-04-02T17:50:12.428Z,65.86
2023-04-02T17:52:46.652Z,69.29
2023-04-02T17:55:26.150Z,67.32
2023-04-02T17:58:12.726Z,63.39
2023-04-02T18:00:55.551Z,62.49
2023-04-02T18:03:50.722Z,60.17
2023-04-02T18:06:33.676Z,60.70
2023-04-02T18:09:04.710Z,58.43
2023-04-02T18:11:37.892Z,57.38
2023-04-02T18:14:42.159Z,57.55
2023-04-02T18:17:27.906Z,59.20
2023-04-02T18:20:20.971Z,62.38
2023-04-02T18:23:02.723Z,67.75
2023-04-02T18:25:43.506Z,66.80
2023-04-02T18:28:24.641Z,63.60
2023-04-02T18:31:14.548Z,61.21
2023-04-02T18:34:00.386Z,60.63
2023-04-02T18:36:43.935Z,60.07
2023-04-02T18:39:33.502Z,57.43
2023-04-02T18:42:23.106Z,57.54
2023-04-02T18:45:12.252Z,62.38
2023-04-02T18:47:58.091Z,64.94
2023-04-02T18:50:32.873Z,63.08
2023-04-02T18:53:13.553Z,62.03
2023-04-02T18:55:51.592Z,60.67
2023-04-02T18:58:27.618Z,60.07
2023-04-02T19:00:56.320Z,60.46
2023-04-02T19:03:53.897Z,57.56
2023-04-02T19:06:27.416Z,58.57
2023-04-02T19:09:08.328Z,60.17
2023-04-02T19:11:35.777Z,60.91
2023-04-02T19:14:08.306Z,64.27
2023-04-02T19:17:01.553Z,67.12
2023-04-02T19:19:54.625Z,64.44
2023-04-02T19:22:57.866Z,62.09
2023-04-02T19:25:37.233Z,61.56
2023-04-02T19:28:23.507Z,60.24
2023-04-02T19:31:34.486Z,60.91
2023-04-02T19:34:39.669Z,60.12
2023-04-02T19:37:25.664Z,60.52
2023-04-02T19:40:01.745Z,58.81
2023-04-02T19:42:47.233Z,55.60
2023-04-02T19:45:49.366Z,56.30
2023-04-02T19:48:21.073Z,58.40
2023-04-02T19:50:49.771Z,60.66
2023-04-02T19:53:17.704Z,64.64
2023-04-02T19:55:45.268Z,69.11
2023-04-02T19:58:23.849Z,66.90
2023-04-02T20:00:51.238Z,65.62
2023-04-02T20:03:18.599Z,63.18
2023-04-02T20:05:46.273Z,61.96
2023-04-02T20:08:13.493Z,59.65
2023-04-02T20:10:41.045Z,56.52
2023-04-02T20:13:09.769Z,56.45
2023-04-02T20:15:37.472Z,57.60
2023-04-02T20:18:05.489Z,59.07
2023-04-02T20:20:32.870Z,63.98
2023-04-02T20:23:00.217Z,68.54
2023-04-02T20:25:27.530Z,68.28
2023-04-02T20:27:55.021Z,63.77
2023-04-02T20:30:21.914Z,62.61
2023-04-02T20:32:49.064Z,62.77
2023-04-02T20:35:16.653Z,61.42
2023-04-02T20:37:43.893Z,60.33
2023-04-02T20:40:11.298Z,60.51
2023-04-02T20:42:38.413Z,60.58
2023-04-02T20:45:06.738Z,58.16
2023-04-02T20:47:34.145Z,56.54
2023-04-02T20:50:01.355Z,59.88
2023-04-02T20:52:30.547Z,61.70
2023-04-02T20:54:57.919Z,65.98
2023-04-02T20:57:26.820Z,66.21
2023-04-02T20:59:54.897Z,65.04
2023-04-02T21:02:21.940Z,62.82
2023-04-02T21:04:49.617Z,61.72
2023-04-02T21:07:17.347Z,61.42
2023-04-02T21:09:44.309Z,60.63
2023-04-02T21:12:11.767Z,60.63
2023-04-02T21:14:40.243Z,60.10
2023-04-02T21:17:08.237Z,59.59
2023-04-02T21:19:36.361Z,57.21
2023-04-02T21:22:03.917Z,58.87
